sensor_id;sensor_type;location;lat;lon;timestamp;P1;durP1;ratioP1;P2;durP2;ratioP2
45065;SDS011;30830;53.704;10.004;2023-02-28T00:01:10;4.53;;;3.13;;
45065;SDS011;30830;53.704;10.004;2023-02-28T00:03:37;5.47;;;3.33;;
45065;SDS011;30830;53.704;10.004;2023-02-28T00:06:04;6.05;;;3.75;;
45065;SDS011;30830;53.704;10.004;2023-02-28T00:08:30;5.45;;;2.83;;
45065;SDS011;30830;53.704;10.004;2023-02-28T00:10:56;6.00;;;2.97;;
45065;SDS011;30830;53.704;10.004;2023-02-28T00:13:25;4.65;;;2.97;;
45065;SDS011;30830;53.704;10.004;2023-02-28T00:15:58;3.75;;;2.97;;
45065;SDS011;30830;53.704;10.004;2023-02-28T00:18:25;4.05;;;2.95;;
45065;SDS011;30830;53.704;10.004;2023-02-28T00:20:50;6.32;;;3.10;;
45065;SDS011;30830;53.704;10.004;2023-02-28T00:23:16;4.35;;;3.50;;
45065;SDS011;30830;53.704;10.004;2023-02-28T00:25:41;4.72;;;3.67;;
45065;SDS011;30830;53.704;10.004;2023-02-28T00:28:07;3.63;;;2.92;;
45065;SDS011;30830;53.704;10.004;2023-02-28T00:30:33;4.55;;;2.80;;
45065;SDS011;30830;53.704;10.004;2023-02-28T00:32:58;4.20;;;2.70;;
45065;SDS011;30830;53.704;10.004;2023-02-28T00:35:24;4.82;;;3.20;;
45065;SDS011;30830;53.704;10.004;2023-02-28T00:37:49;3.33;;;2.63;;
45065;SDS011;30830;53.704;10.004;2023-02-28T00:40:15;4.00;;;2.50;;
45065;SDS011;30830;53.704;10.004;2023-02-28T00:42:41;4.40;;;2.58;;
45065;SDS011;30830;53.704;10.004;2023-02-28T00:45:06;5.43;;;3.45;;
45065;SDS011;30830;53.704;10.004;2023-02-28T00:47:35;5.68;;;3.22;;
45065;SDS011;30830;53.704;10.004;2023-02-28T00:50:00;9.48;;;3.17;;
45065;SDS011;30830;53.704;10.004;2023-02-28T00:52:26;4.43;;;2.80;;
45065;SDS011;30830;53.704;10.004;2023-02-28T00:54:52;5.47;;;2.35;;
45065;SDS011;30830;53.704;10.004;2023-02-28T00:57:17;5.63;;;3.33;;
45065;SDS011;30830;53.704;10.004;2023-02-28T00:59:43;4.00;;;3.00;;
45065;SDS011;30830;53.704;10.004;2023-02-28T01:02:08;8.02;;;3.90;;
45065;SDS011;30830;53.704;10.004;2023-02-28T01:04:35;6.88;;;3.45;;
45065;SDS011;30830;53.704;10.004;2023-02-28T01:07:00;5.57;;;3.53;;
45065;SDS011;30830;53.704;10.004;2023-02-28T01:09:26;6.45;;;3.20;;
45065;SDS011;30830;53.704;10.004;2023-02-28T01:11:52;7.50;;;4.07;;
45065;SDS011;30830;53.704;10.004;2023-02-28T01:14:18;5.68;;;3.90;;
45065;SDS011;30830;53.704;10.004;2023-02-28T01:16:43;5.85;;;4.15;;
45065;SDS011;30830;53.704;10.004;2023-02-28T01:19:09;7.18;;;4.28;;
45065;SDS011;30830;53.704;10.004;2023-02-28T01:21:35;7.93;;;4.88;;
45065;SDS011;30830;53.704;10.004;2023-02-28T01:24:01;7.75;;;4.35;;
45065;SDS011;30830;53.704;10.004;2023-02-28T01:26:30;6.28;;;4.75;;
45065;SDS011;30830;53.704;10.004;2023-02-28T01:28:56;5.65;;;4.40;;
45065;SDS011;30830;53.704;10.004;2023-02-28T01:31:22;6.85;;;4.07;;
45065;SDS011;30830;53.704;10.004;2023-02-28T01:33:49;6.88;;;4.63;;
45065;SDS011;30830;53.704;10.004;2023-02-28T01:36:15;9.18;;;4.78;;
45065;SDS011;30830;53.704;10.004;2023-02-28T01:38:44;6.35;;;4.57;;
45065;SDS011;30830;53.704;10.004;2023-02-28T01:41:14;5.55;;;3.80;;
45065;SDS011;30830;53.704;10.004;2023-02-28T01:46:11;5.80;;;4.25;;
45065;SDS011;30830;53.704;10.004;2023-02-28T01:48:38;6.68;;;4.20;;
45065;SDS011;30830;53.704;10.004;2023-02-28T01:51:13;6.13;;;3.78;;
45065;SDS011;30830;53.704;10.004;2023-02-28T01:53:44;4.72;;;4.10;;
45065;SDS011;30830;53.704;10.004;2023-02-28T01:56:12;7.65;;;4.53;;
45065;SDS011;30830;53.704;10.004;2023-02-28T01:58:46;7.13;;;4.35;;
45065;SDS011;30830;53.704;10.004;2023-02-28T02:01:13;9.70;;;4.00;;
45065;SDS011;30830;53.704;10.004;2023-02-28T02:03:53;7.18;;;4.07;;
45065;SDS011;30830;53.704;10.004;2023-02-28T02:06:25;5.50;;;3.90;;
45065;SDS011;30830;53.704;10.004;2023-02-28T02:08:54;9.80;;;3.92;;
45065;SDS011;30830;53.704;10.004;2023-02-28T02:11:20;7.60;;;4.22;;
45065;SDS011;30830;53.704;10.004;2023-02-28T02:16:50;6.88;;;3.65;;
45065;SDS011;30830;53.704;10.004;2023-02-28T02:22:29;6.63;;;4.13;;
45065;SDS011;30830;53.704;10.004;2023-02-28T02:36:53;7.70;;;4.47;;
45065;SDS011;30830;53.704;10.004;2023-02-28T02:42:20;6.50;;;4.00;;
45065;SDS011;30830;53.704;10.004;2023-02-28T02:45:01;5.28;;;3.25;;
45065;SDS011;30830;53.704;10.004;2023-02-28T02:48:00;6.28;;;4.07;;
45065;SDS011;30830;53.704;10.004;2023-02-28T02:50:33;5.68;;;3.70;;
45065;SDS011;30830;53.704;10.004;2023-02-28T02:53:07;6.07;;;4.00;;
45065;SDS011;30830;53.704;10.004;2023-02-28T02:55:34;8.45;;;4.05;;
45065;SDS011;30830;53.704;10.004;2023-02-28T02:58:05;8.15;;;3.90;;
45065;SDS011;30830;53.704;10.004;2023-02-28T03:00:38;5.40;;;3.65;;
45065;SDS011;30830;53.704;10.004;2023-02-28T03:03:08;6.80;;;3.22;;
45065;SDS011;30830;53.704;10.004;2023-02-28T03:05:39;7.57;;;4.55;;
45065;SDS011;30830;53.704;10.004;2023-02-28T03:08:10;7.75;;;4.40;;
45065;SDS011;30830;53.704;10.004;2023-02-28T03:15:52;12.27;;;4.03;;
45065;SDS011;30830;53.704;10.004;2023-02-28T03:21:14;6.28;;;3.67;;
45065;SDS011;30830;53.704;10.004;2023-02-28T03:23:57;4.03;;;3.25;;
45065;SDS011;30830;53.704;10.004;2023-02-28T03:26:34;5.15;;;3.17;;
45065;SDS011;30830;53.704;10.004;2023-02-28T03:29:05;5.55;;;3.83;;
45065;SDS011;30830;53.704;10.004;2023-02-28T03:36:45;6.97;;;3.45;;
45065;SDS011;30830;53.704;10.004;2023-02-28T03:39:18;6.20;;;3.60;;
45065;SDS011;30830;53.704;10.004;2023-02-28T03:41:52;5.82;;;3.63;;
45065;SDS011;30830;53.704;10.004;2023-02-28T03:44:34;8.05;;;3.47;;
45065;SDS011;30830;53.704;10.004;2023-02-28T03:47:07;6.03;;;4.15;;
45065;SDS011;30830;53.704;10.004;2023-02-28T03:49:36;6.13;;;3.55;;
45065;SDS011;30830;53.704;10.004;2023-02-28T03:52:12;7.38;;;4.22;;
45065;SDS011;30830;53.704;10.004;2023-02-28T03:54:41;4.75;;;3.85;;
45065;SDS011;30830;53.704;10.004;2023-02-28T03:59:50;6.35;;;3.60;;
45065;SDS011;30830;53.704;10.004;2023-02-28T04:02:24;7.18;;;4.13;;
45065;SDS011;30830;53.704;10.004;2023-02-28T04:04:49;6.78;;;3.70;;
45065;SDS011;30830;53.704;10.004;2023-02-28T04:07:16;5.32;;;3.53;;
45065;SDS011;30830;53.704;10.004;2023-02-28T04:09:42;6.95;;;4.20;;
45065;SDS011;30830;53.704;10.004;2023-02-28T04:12:08;8.13;;;3.97;;
45065;SDS011;30830;53.704;10.004;2023-02-28T04:14:33;6.03;;;3.85;;
45065;SDS011;30830;53.704;10.004;2023-02-28T04:16:59;5.88;;;4.05;;
45065;SDS011;30830;53.704;10.004;2023-02-28T04:19:25;4.00;;;3.50;;
45065;SDS011;30830;53.704;10.004;2023-02-28T04:21:51;6.00;;;3.67;;
45065;SDS011;30830;53.704;10.004;2023-02-28T04:24:18;5.95;;;3.92;;
45065;SDS011;30830;53.704;10.004;2023-02-28T04:26:49;5.15;;;3.90;;
45065;SDS011;30830;53.704;10.004;2023-02-28T04:29:20;5.20;;;3.47;;
45065;SDS011;30830;53.704;10.004;2023-02-28T04:31:48;6.75;;;4.00;;
45065;SDS011;30830;53.704;10.004;2023-02-28T04:34:14;5.85;;;4.55;;
45065;SDS011;30830;53.704;10.004;2023-02-28T04:36:40;6.03;;;4.03;;
45065;SDS011;30830;53.704;10.004;2023-02-28T04:39:06;7.25;;;4.18;;
45065;SDS011;30830;53.704;10.004;2023-02-28T04:41:31;6.10;;;4.15;;
45065;SDS011;30830;53.704;10.004;2023-02-28T04:43:57;8.07;;;3.88;;
45065;SDS011;30830;53.704;10.004;2023-02-28T04:46:23;5.85;;;3.88;;
45065;SDS011;30830;53.704;10.004;2023-02-28T04:48:48;6.93;;;3.47;;
45065;SDS011;30830;53.704;10.004;2023-02-28T04:51:15;4.20;;;3.47;;
45065;SDS011;30830;53.704;10.004;2023-02-28T04:53:42;5.22;;;3.65;;
45065;SDS011;30830;53.704;10.004;2023-02-28T04:56:08;8.07;;;4.00;;
45065;SDS011;30830;53.704;10.004;2023-02-28T04:58:36;5.97;;;3.70;;
45065;SDS011;30830;53.704;10.004;2023-02-28T05:01:03;5.53;;;3.67;;
45065;SDS011;30830;53.704;10.004;2023-02-28T05:03:37;8.75;;;4.72;;
45065;SDS011;30830;53.704;10.004;2023-02-28T05:06:06;9.98;;;4.57;;
45065;SDS011;30830;53.704;10.004;2023-02-28T05:08:32;5.65;;;4.45;;
45065;SDS011;30830;53.704;10.004;2023-02-28T05:10:58;5.72;;;4.38;;
45065;SDS011;30830;53.704;10.004;2023-02-28T05:13:25;6.47;;;4.68;;
45065;SDS011;30830;53.704;10.004;2023-02-28T05:15:51;6.45;;;4.30;;
45065;SDS011;30830;53.704;10.004;2023-02-28T05:18:17;5.28;;;3.95;;
45065;SDS011;30830;53.704;10.004;2023-02-28T05:20:42;6.90;;;4.13;;
45065;SDS011;30830;53.704;10.004;2023-02-28T05:23:08;8.75;;;4.40;;
45065;SDS011;30830;53.704;10.004;2023-02-28T05:25:37;7.88;;;4.38;;
45065;SDS011;30830;53.704;10.004;2023-02-28T05:28:03;4.40;;;4.00;;
45065;SDS011;30830;53.704;10.004;2023-02-28T05:30:29;9.18;;;4.18;;
45065;SDS011;30830;53.704;10.004;2023-02-28T05:32:56;5.55;;;4.38;;
45065;SDS011;30830;53.704;10.004;2023-02-28T05:35:22;7.03;;;4.20;;
45065;SDS011;30830;53.704;10.004;2023-02-28T05:37:48;9.75;;;4.18;;
45065;SDS011;30830;53.704;10.004;2023-02-28T05:40:14;7.70;;;4.13;;
45065;SDS011;30830;53.704;10.004;2023-02-28T05:42:40;8.38;;;3.88;;
45065;SDS011;30830;53.704;10.004;2023-02-28T05:45:06;5.70;;;3.55;;
45065;SDS011;30830;53.704;10.004;2023-02-28T05:47:33;6.95;;;4.10;;
45065;SDS011;30830;53.704;10.004;2023-02-28T05:49:59;4.55;;;3.10;;
45065;SDS011;30830;53.704;10.004;2023-02-28T05:52:25;5.00;;;3.10;;
45065;SDS011;30830;53.704;10.004;2023-02-28T05:54:51;5.63;;;3.85;;
45065;SDS011;30830;53.704;10.004;2023-02-28T05:57:16;7.50;;;3.80;;
45065;SDS011;30830;53.704;10.004;2023-02-28T05:59:42;7.03;;;4.22;;
45065;SDS011;30830;53.704;10.004;2023-02-28T06:02:11;5.35;;;3.63;;
45065;SDS011;30830;53.704;10.004;2023-02-28T06:04:38;4.78;;;3.63;;
45065;SDS011;30830;53.704;10.004;2023-02-28T06:07:05;6.47;;;4.35;;
45065;SDS011;30830;53.704;10.004;2023-02-28T06:09:32;8.07;;;4.38;;
45065;SDS011;30830;53.704;10.004;2023-02-28T06:11:58;8.15;;;4.15;;
45065;SDS011;30830;53.704;10.004;2023-02-28T06:14:24;4.63;;;4.15;;
45065;SDS011;30830;53.704;10.004;2023-02-28T06:16:51;5.38;;;4.03;;
45065;SDS011;30830;53.704;10.004;2023-02-28T06:19:17;7.63;;;4.03;;
45065;SDS011;30830;53.704;10.004;2023-02-28T06:21:43;6.38;;;4.03;;
45065;SDS011;30830;53.704;10.004;2023-02-28T06:24:09;5.43;;;3.80;;
45065;SDS011;30830;53.704;10.004;2023-02-28T06:26:35;8.55;;;4.45;;
45065;SDS011;30830;53.704;10.004;2023-02-28T06:29:00;7.47;;;3.80;;
45065;SDS011;30830;53.704;10.004;2023-02-28T06:31:26;9.65;;;3.92;;
45065;SDS011;30830;53.704;10.004;2023-02-28T06:33:53;4.47;;;3.40;;
45065;SDS011;30830;53.704;10.004;2023-02-28T06:36:19;5.82;;;3.97;;
45065;SDS011;30830;53.704;10.004;2023-02-28T06:38:45;5.13;;;3.65;;
45065;SDS011;30830;53.704;10.004;2023-02-28T06:41:13;4.90;;;3.80;;
45065;SDS011;30830;53.704;10.004;2023-02-28T06:43:40;6.25;;;4.07;;
45065;SDS011;30830;53.704;10.004;2023-02-28T06:46:07;6.85;;;3.63;;
45065;SDS011;30830;53.704;10.004;2023-02-28T06:48:36;5.60;;;3.97;;
45065;SDS011;30830;53.704;10.004;2023-02-28T06:51:04;6.32;;;3.90;;
45065;SDS011;30830;53.704;10.004;2023-02-28T06:53:31;6.47;;;4.57;;
45065;SDS011;30830;53.704;10.004;2023-02-28T06:55:58;4.57;;;3.65;;
45065;SDS011;30830;53.704;10.004;2023-02-28T06:58:23;6.28;;;3.92;;
45065;SDS011;30830;53.704;10.004;2023-02-28T07:00:52;5.38;;;3.88;;
45065;SDS011;30830;53.704;10.004;2023-02-28T07:03:18;7.07;;;4.22;;
45065;SDS011;30830;53.704;10.004;2023-02-28T07:05:44;9.27;;;4.38;;
45065;SDS011;30830;53.704;10.004;2023-02-28T07:08:10;6.97;;;4.80;;
45065;SDS011;30830;53.704;10.004;2023-02-28T07:10:39;5.35;;;3.97;;
45065;SDS011;30830;53.704;10.004;2023-02-28T07:13:06;9.85;;;4.60;;
45065;SDS011;30830;53.704;10.004;2023-02-28T07:15:33;6.82;;;4.18;;
45065;SDS011;30830;53.704;10.004;2023-02-28T07:18:00;8.45;;;4.75;;
45065;SDS011;30830;53.704;10.004;2023-02-28T07:20:25;6.13;;;4.22;;
45065;SDS011;30830;53.704;10.004;2023-02-28T07:22:51;6.20;;;4.32;;
45065;SDS011;30830;53.704;10.004;2023-02-28T07:25:23;6.90;;;4.20;;
45065;SDS011;30830;53.704;10.004;2023-02-28T07:27:49;7.03;;;5.28;;
45065;SDS011;30830;53.704;10.004;2023-02-28T07:30:15;6.93;;;4.88;;
45065;SDS011;30830;53.704;10.004;2023-02-28T07:32:41;8.02;;;5.05;;
45065;SDS011;30830;53.704;10.004;2023-02-28T07:35:07;9.25;;;5.40;;
45065;SDS011;30830;53.704;10.004;2023-02-28T07:37:33;6.95;;;4.78;;
45065;SDS011;30830;53.704;10.004;2023-02-28T07:40:04;6.05;;;4.40;;
45065;SDS011;30830;53.704;10.004;2023-02-28T07:42:33;8.02;;;4.75;;
45065;SDS011;30830;53.704;10.004;2023-02-28T07:44:59;7.63;;;5.30;;
45065;SDS011;30830;53.704;10.004;2023-02-28T07:47:25;10.23;;;5.43;;
45065;SDS011;30830;53.704;10.004;2023-02-28T07:49:51;8.52;;;4.80;;
45065;SDS011;30830;53.704;10.004;2023-02-28T07:52:17;9.88;;;5.80;;
45065;SDS011;30830;53.704;10.004;2023-02-28T07:54:43;8.27;;;5.30;;
45065;SDS011;30830;53.704;10.004;2023-02-28T07:57:08;6.95;;;4.93;;
45065;SDS011;30830;53.704;10.004;2023-02-28T07:59:34;8.85;;;4.47;;
45065;SDS011;30830;53.704;10.004;2023-02-28T08:02:00;5.18;;;4.50;;
45065;SDS011;30830;53.704;10.004;2023-02-28T08:04:25;5.47;;;3.83;;
45065;SDS011;30830;53.704;10.004;2023-02-28T08:06:51;7.13;;;3.67;;
45065;SDS011;30830;53.704;10.004;2023-02-28T08:09:21;9.10;;;4.45;;
45065;SDS011;30830;53.704;10.004;2023-02-28T08:11:47;7.57;;;4.53;;
45065;SDS011;30830;53.704;10.004;2023-02-28T08:14:12;9.00;;;4.20;;
45065;SDS011;30830;53.704;10.004;2023-02-28T08:16:38;6.28;;;4.00;;
45065;SDS011;30830;53.704;10.004;2023-02-28T08:19:04;7.53;;;4.10;;
45065;SDS011;30830;53.704;10.004;2023-02-28T08:21:30;6.07;;;4.10;;
45065;SDS011;30830;53.704;10.004;2023-02-28T08:23:55;9.65;;;3.85;;
45065;SDS011;30830;53.704;10.004;2023-02-28T08:26:21;6.53;;;3.55;;
45065;SDS011;30830;53.704;10.004;2023-02-28T08:28:47;5.28;;;3.30;;
45065;SDS011;30830;53.704;10.004;2023-02-28T08:31:14;8.18;;;4.20;;
45065;SDS011;30830;53.704;10.004;2023-02-28T08:33:41;6.30;;;3.58;;
45065;SDS011;30830;53.704;10.004;2023-02-28T08:36:07;5.55;;;3.35;;
45065;SDS011;30830;53.704;10.004;2023-02-28T08:38:34;4.88;;;3.35;;
45065;SDS011;30830;53.704;10.004;2023-02-28T08:41:01;5.82;;;3.40;;
45065;SDS011;30830;53.704;10.004;2023-02-28T08:43:32;7.45;;;2.78;;
45065;SDS011;30830;53.704;10.004;2023-02-28T08:45:59;7.97;;;2.90;;
45065;SDS011;30830;53.704;10.004;2023-02-28T08:48:25;8.27;;;3.65;;
45065;SDS011;30830;53.704;10.004;2023-02-28T08:50:57;5.75;;;3.25;;
45065;SDS011;30830;53.704;10.004;2023-02-28T08:53:30;4.82;;;3.03;;
45065;SDS011;30830;53.704;10.004;2023-02-28T08:56:00;3.05;;;2.67;;
45065;SDS011;30830;53.704;10.004;2023-02-28T08:58:37;5.75;;;3.00;;
45065;SDS011;30830;53.704;10.004;2023-02-28T09:01:13;3.47;;;2.33;;
45065;SDS011;30830;53.704;10.004;2023-02-28T09:03:39;3.85;;;2.13;;
45065;SDS011;30830;53.704;10.004;2023-02-28T09:06:06;5.97;;;2.38;;
45065;SDS011;30830;53.704;10.004;2023-02-28T09:08:33;5.43;;;2.33;;
45065;SDS011;30830;53.704;10.004;2023-02-28T09:10:58;6.20;;;2.42;;
45065;SDS011;30830;53.704;10.004;2023-02-28T09:13:25;2.45;;;2.10;;
45065;SDS011;30830;53.704;10.004;2023-02-28T09:15:52;1.98;;;1.40;;
45065;SDS011;30830;53.704;10.004;2023-02-28T09:18:17;4.30;;;2.10;;
45065;SDS011;30830;53.704;10.004;2023-02-28T09:20:43;3.92;;;1.63;;
45065;SDS011;30830;53.704;10.004;2023-02-28T09:23:10;2.70;;;1.48;;
45065;SDS011;30830;53.704;10.004;2023-02-28T09:25:37;2.88;;;1.70;;
45065;SDS011;30830;53.704;10.004;2023-02-28T09:28:09;6.90;;;3.95;;
45065;SDS011;30830;53.704;10.004;2023-02-28T09:30:35;15.65;;;8.25;;
45065;SDS011;30830;53.704;10.004;2023-02-28T09:33:01;6.38;;;3.85;;
45065;SDS011;30830;53.704;10.004;2023-02-28T09:35:26;1.42;;;1.33;;
45065;SDS011;30830;53.704;10.004;2023-02-28T09:37:52;1.35;;;1.25;;
45065;SDS011;30830;53.704;10.004;2023-02-28T09:40:18;3.25;;;1.55;;
45065;SDS011;30830;53.704;10.004;2023-02-28T09:42:47;1.40;;;1.20;;
45065;SDS011;30830;53.704;10.004;2023-02-28T09:45:39;1.52;;;1.10;;
45065;SDS011;30830;53.704;10.004;2023-02-28T09:48:08;5.72;;;2.30;;
45065;SDS011;30830;53.704;10.004;2023-02-28T09:50:40;5.70;;;2.05;;
45065;SDS011;30830;53.704;10.004;2023-02-28T09:53:32;3.58;;;1.75;;
45065;SDS011;30830;53.704;10.004;2023-02-28T10:01:17;2.53;;;1.27;;
45065;SDS011;30830;53.704;10.004;2023-02-28T10:03:50;4.13;;;1.45;;
45065;SDS011;30830;53.704;10.004;2023-02-28T10:06:21;3.55;;;1.63;;
45065;SDS011;30830;53.704;10.004;2023-02-28T10:11:32;4.28;;;1.80;;
45065;SDS011;30830;53.704;10.004;2023-02-28T10:16:35;3.53;;;1.73;;
45065;SDS011;30830;53.704;10.004;2023-02-28T10:19:03;2.22;;;1.40;;
45065;SDS011;30830;53.704;10.004;2023-02-28T10:21:55;2.97;;;2.08;;
45065;SDS011;30830;53.704;10.004;2023-02-28T10:26:59;4.28;;;1.70;;
45065;SDS011;30830;53.704;10.004;2023-02-28T10:29:29;2.17;;;1.65;;
45065;SDS011;30830;53.704;10.004;2023-02-28T10:31:58;3.50;;;1.58;;
45065;SDS011;30830;53.704;10.004;2023-02-28T10:34:27;1.20;;;1.13;;
45065;SDS011;30830;53.704;10.004;2023-02-28T10:36:53;2.83;;;1.48;;
45065;SDS011;30830;53.704;10.004;2023-02-28T10:42:18;1.92;;;1.45;;
45065;SDS011;30830;53.704;10.004;2023-02-28T10:45:05;2.00;;;1.48;;
45065;SDS011;30830;53.704;10.004;2023-02-28T11:01:23;2.47;;;1.35;;
45065;SDS011;30830;53.704;10.004;2023-02-28T11:03:55;2.17;;;1.35;;
45065;SDS011;30830;53.704;10.004;2023-02-28T11:06:23;5.03;;;1.58;;
45065;SDS011;30830;53.704;10.004;2023-02-28T11:08:54;4.68;;;1.48;;
45065;SDS011;30830;53.704;10.004;2023-02-28T11:11:21;1.48;;;1.30;;
45065;SDS011;30830;53.704;10.004;2023-02-28T11:13:51;3.20;;;1.63;;
45065;SDS011;30830;53.704;10.004;2023-02-28T11:16:22;1.98;;;1.48;;
45065;SDS011;30830;53.704;10.004;2023-02-28T11:18:58;1.95;;;1.17;;
45065;SDS011;30830;53.704;10.004;2023-02-28T11:21:26;2.72;;;1.40;;
45065;SDS011;30830;53.704;10.004;2023-02-28T11:23:54;4.32;;;2.03;;
45065;SDS011;30830;53.704;10.004;2023-02-28T11:26:39;2.15;;;1.55;;
45065;SDS011;30830;53.704;10.004;2023-02-28T11:29:29;1.85;;;1.30;;
45065;SDS011;30830;53.704;10.004;2023-02-28T11:32:02;1.58;;;1.42;;
45065;SDS011;30830;53.704;10.004;2023-02-28T11:34:28;1.50;;;1.13;;
45065;SDS011;30830;53.704;10.004;2023-02-28T11:36:55;2.17;;;1.15;;
45065;SDS011;30830;53.704;10.004;2023-02-28T11:39:23;2.65;;;1.42;;
45065;SDS011;30830;53.704;10.004;2023-02-28T11:57:56;2.65;;;1.60;;
45065;SDS011;30830;53.704;10.004;2023-02-28T12:00:37;1.73;;;1.40;;
45065;SDS011;30830;53.704;10.004;2023-02-28T12:11:55;1.80;;;1.20;;
45065;SDS011;30830;53.704;10.004;2023-02-28T12:14:59;2.47;;;1.40;;
45065;SDS011;30830;53.704;10.004;2023-02-28T12:20:43;1.83;;;1.05;;
45065;SDS011;30830;53.704;10.004;2023-02-28T12:28:59;1.42;;;0.85;;
45065;SDS011;30830;53.704;10.004;2023-02-28T12:31:40;1.52;;;1.10;;
45065;SDS011;30830;53.704;10.004;2023-02-28T12:34:12;2.33;;;1.33;;
45065;SDS011;30830;53.704;10.004;2023-02-28T12:36:41;1.35;;;1.10;;
45065;SDS011;30830;53.704;10.004;2023-02-28T12:39:12;1.45;;;1.08;;
45065;SDS011;30830;53.704;10.004;2023-02-28T12:42:03;4.82;;;1.50;;
45065;SDS011;30830;53.704;10.004;2023-02-28T12:44:37;2.25;;;0.95;;
45065;SDS011;30830;53.704;10.004;2023-02-28T12:47:10;3.15;;;1.45;;
45065;SDS011;30830;53.704;10.004;2023-02-28T12:52:11;1.63;;;1.23;;
45065;SDS011;30830;53.704;10.004;2023-02-28T13:00:10;2.75;;;1.60;;
45065;SDS011;30830;53.704;10.004;2023-02-28T13:05:14;2.28;;;1.20;;
45065;SDS011;30830;53.704;10.004;2023-02-28T13:08:15;2.35;;;1.38;;
45065;SDS011;30830;53.704;10.004;2023-02-28T13:11:05;1.30;;;1.00;;
45065;SDS011;30830;53.704;10.004;2023-02-28T13:13:31;1.30;;;1.20;;
45065;SDS011;30830;53.704;10.004;2023-02-28T13:16:10;1.58;;;1.00;;
45065;SDS011;30830;53.704;10.004;2023-02-28T13:26:22;3.03;;;1.20;;
45065;SDS011;30830;53.704;10.004;2023-02-28T13:34:31;1.38;;;1.08;;
45065;SDS011;30830;53.704;10.004;2023-02-28T13:47:39;1.92;;;1.08;;
45065;SDS011;30830;53.704;10.004;2023-02-28T14:07:25;1.88;;;1.25;;
45065;SDS011;30830;53.704;10.004;2023-02-28T14:09:59;2.03;;;1.20;;
45065;SDS011;30830;53.704;10.004;2023-02-28T14:15:39;3.97;;;1.27;;
45065;SDS011;30830;53.704;10.004;2023-02-28T14:18:16;3.38;;;1.38;;
45065;SDS011;30830;53.704;10.004;2023-02-28T14:20:45;2.60;;;1.60;;
45065;SDS011;30830;53.704;10.004;2023-02-28T14:31:57;4.47;;;1.38;;
45065;SDS011;30830;53.704;10.004;2023-02-28T14:34:39;2.22;;;1.20;;
45065;SDS011;30830;53.704;10.004;2023-02-28T14:37:14;2.08;;;0.95;;
45065;SDS011;30830;53.704;10.004;2023-02-28T14:39:44;1.77;;;1.20;;
45065;SDS011;30830;53.704;10.004;2023-02-28T14:42:29;1.83;;;1.08;;
45065;SDS011;30830;53.704;10.004;2023-02-28T14:44:59;2.33;;;1.48;;
45065;SDS011;30830;53.704;10.004;2023-02-28T14:47:27;2.08;;;1.00;;
45065;SDS011;30830;53.704;10.004;2023-02-28T14:49:57;2.38;;;1.10;;
45065;SDS011;30830;53.704;10.004;2023-02-28T14:52:27;0.70;;;0.70;;
45065;SDS011;30830;53.704;10.004;2023-02-28T14:59:56;1.05;;;0.93;;
45065;SDS011;30830;53.704;10.004;2023-02-28T15:02:36;3.03;;;1.00;;
45065;SDS011;30830;53.704;10.004;2023-02-28T15:07:34;2.58;;;1.42;;
45065;SDS011;30830;53.704;10.004;2023-02-28T15:10:08;2.25;;;1.25;;
45065;SDS011;30830;53.704;10.004;2023-02-28T15:12:57;2.30;;;1.35;;
45065;SDS011;30830;53.704;10.004;2023-02-28T15:15:27;1.23;;;1.15;;
45065;SDS011;30830;53.704;10.004;2023-02-28T15:18:13;1.42;;;0.95;;
45065;SDS011;30830;53.704;10.004;2023-02-28T15:21:05;1.85;;;1.08;;
45065;SDS011;30830;53.704;10.004;2023-02-28T15:23:32;1.92;;;1.23;;
45065;SDS011;30830;53.704;10.004;2023-02-28T15:26:01;2.17;;;1.70;;
45065;SDS011;30830;53.704;10.004;2023-02-28T15:28:27;2.95;;;1.30;;
45065;SDS011;30830;53.704;10.004;2023-02-28T15:30:54;5.00;;;1.48;;
45065;SDS011;30830;53.704;10.004;2023-02-28T15:33:26;1.75;;;1.20;;
45065;SDS011;30830;53.704;10.004;2023-02-28T15:36:06;1.83;;;1.00;;
45065;SDS011;30830;53.704;10.004;2023-02-28T15:38:40;2.15;;;1.40;;
45065;SDS011;30830;53.704;10.004;2023-02-28T15:41:21;1.38;;;1.10;;
45065;SDS011;30830;53.704;10.004;2023-02-28T15:43:57;2.85;;;1.33;;
45065;SDS011;30830;53.704;10.004;2023-02-28T15:49:20;2.47;;;1.30;;
45065;SDS011;30830;53.704;10.004;2023-02-28T15:51:48;2.65;;;1.45;;
45065;SDS011;30830;53.704;10.004;2023-02-28T15:54:23;1.23;;;1.10;;
45065;SDS011;30830;53.704;10.004;2023-02-28T15:56:52;3.70;;;1.40;;
45065;SDS011;30830;53.704;10.004;2023-02-28T15:59:29;2.10;;;1.50;;
45065;SDS011;30830;53.704;10.004;2023-02-28T16:02:03;2.47;;;1.60;;
45065;SDS011;30830;53.704;10.004;2023-02-28T16:04:35;3.55;;;1.50;;
45065;SDS011;30830;53.704;10.004;2023-02-28T16:07:02;1.50;;;1.10;;
45065;SDS011;30830;53.704;10.004;2023-02-28T16:09:29;2.38;;;1.13;;
45065;SDS011;30830;53.704;10.004;2023-02-28T16:11:56;2.40;;;1.33;;
45065;SDS011;30830;53.704;10.004;2023-02-28T16:14:30;3.28;;;1.70;;
45065;SDS011;30830;53.704;10.004;2023-02-28T16:16:56;1.85;;;1.20;;
45065;SDS011;30830;53.704;10.004;2023-02-28T16:19:29;2.38;;;1.38;;
45065;SDS011;30830;53.704;10.004;2023-02-28T16:21:56;1.60;;;1.30;;
45065;SDS011;30830;53.704;10.004;2023-02-28T16:24:21;5.28;;;1.85;;
45065;SDS011;30830;53.704;10.004;2023-02-28T16:26:47;2.78;;;2.00;;
45065;SDS011;30830;53.704;10.004;2023-02-28T16:29:29;3.67;;;2.17;;
45065;SDS011;30830;53.704;10.004;2023-02-28T16:31:57;2.55;;;1.65;;
45065;SDS011;30830;53.704;10.004;2023-02-28T16:34:23;2.38;;;1.98;;
45065;SDS011;30830;53.704;10.004;2023-02-28T16:36:49;3.03;;;2.25;;
45065;SDS011;30830;53.704;10.004;2023-02-28T16:39:15;4.28;;;2.00;;
45065;SDS011;30830;53.704;10.004;2023-02-28T16:41:44;5.63;;;2.38;;
45065;SDS011;30830;53.704;10.004;2023-02-28T16:44:13;3.83;;;2.22;;
45065;SDS011;30830;53.704;10.004;2023-02-28T16:46:46;2.00;;;1.70;;
45065;SDS011;30830;53.704;10.004;2023-02-28T16:49:11;3.45;;;1.90;;
45065;SDS011;30830;53.704;10.004;2023-02-28T16:51:38;3.13;;;1.83;;
45065;SDS011;30830;53.704;10.004;2023-02-28T16:54:03;3.00;;;2.00;;
45065;SDS011;30830;53.704;10.004;2023-02-28T16:56:29;2.72;;;1.98;;
45065;SDS011;30830;53.704;10.004;2023-02-28T16:58:57;2.72;;;1.85;;
45065;SDS011;30830;53.704;10.004;2023-02-28T17:01:25;4.03;;;2.38;;
45065;SDS011;30830;53.704;10.004;2023-02-28T17:03:52;5.40;;;2.55;;
45065;SDS011;30830;53.704;10.004;2023-02-28T17:06:25;4.97;;;2.60;;
45065;SDS011;30830;53.704;10.004;2023-02-28T17:08:53;4.72;;;2.70;;
45065;SDS011;30830;53.704;10.004;2023-02-28T17:11:20;4.00;;;2.80;;
45065;SDS011;30830;53.704;10.004;2023-02-28T17:13:46;3.88;;;2.85;;
45065;SDS011;30830;53.704;10.004;2023-02-28T17:16:31;5.40;;;3.55;;
45065;SDS011;30830;53.704;10.004;2023-02-28T17:18:59;6.13;;;5.00;;
45065;SDS011;30830;53.704;10.004;2023-02-28T17:21:27;9.95;;;7.50;;
45065;SDS011;30830;53.704;10.004;2023-02-28T17:23:53;14.32;;;10.55;;
45065;SDS011;30830;53.704;10.004;2023-02-28T17:26:19;15.13;;;10.80;;
45065;SDS011;30830;53.704;10.004;2023-02-28T17:28:48;12.45;;;7.90;;
45065;SDS011;30830;53.704;10.004;2023-02-28T17:31:15;11.40;;;6.57;;
45065;SDS011;30830;53.704;10.004;2023-02-28T17:33:41;5.38;;;4.68;;
45065;SDS011;30830;53.704;10.004;2023-02-28T17:36:10;6.20;;;4.50;;
45065;SDS011;30830;53.704;10.004;2023-02-28T17:38:39;7.93;;;5.20;;
45065;SDS011;30830;53.704;10.004;2023-02-28T17:41:06;7.07;;;5.18;;
45065;SDS011;30830;53.704;10.004;2023-02-28T17:43:32;6.40;;;4.68;;